createdAt,value
2022-10-12T00:00:00.096Z,11.5
2022-10-12T00:05:00.100Z,11.7
2022-10-12T00:10:00.106Z,11.7
2022-10-12T00:15:00.137Z,12.2
2022-10-12T00:20:00.093Z,12.2
2022-10-12T00:25:00.247Z,13.7
2022-10-12T00:30:00.108Z,13.7
2022-10-12T00:35:00.114Z,10.3
2022-10-12T00:40:00.145Z,10.3
2022-10-12T00:45:00.094Z,9.9
2022-10-12T00:50:00.094Z,9.9
2022-10-12T00:55:00.167Z,12.9
2022-10-12T01:00:00.135Z,12.9
2022-10-12T01:05:00.095Z,9.3
2022-10-12T01:10:00.140Z,9.3
2022-10-12T01:15:00.118Z,11.7
2022-10-12T01:20:00.111Z,11.7
2022-10-12T01:25:00.149Z,11.6
2022-10-12T01:30:00.106Z,11.6
2022-10-12T01:35:00.111Z,11.8
2022-10-12T01:40:00.127Z,11.8
2022-10-12T01:45:00.096Z,14.7
2022-10-12T01:50:00.121Z,14.7
2022-10-12T01:55:00.143Z,10.8
2022-10-12T02:00:00.124Z,10.8
2022-10-12T02:05:00.128Z,11.7
2022-10-12T02:10:00.140Z,11.7
2022-10-12T02:15:00.102Z,8.9
2022-10-12T02:20:00.140Z,8.9
2022-10-12T02:25:00.184Z,8.2
2022-10-12T02:30:00.125Z,8.2
2022-10-12T02:35:00.118Z,10.7
2022-10-12T02:40:00.116Z,10.7
2022-10-12T02:45:00.118Z,8.5
2022-10-12T02:50:00.108Z,8.5
2022-10-12T02:55:00.151Z,11.8
2022-10-12T03:00:00.113Z,11.8
2022-10-12T03:05:00.089Z,12
2022-10-12T03:10:00.165Z,12
2022-10-12T03:15:00.122Z,12.8
2022-10-12T03:20:00.117Z,12.8
2022-10-12T03:25:00.202Z,8.6
2022-10-12T03:30:00.101Z,8.6
2022-10-12T03:35:00.119Z,13.6
2022-10-12T03:40:00.186Z,13.6
2022-10-12T03:45:00.100Z,9.8
2022-10-12T03:50:00.137Z,9.8
2022-10-12T03:55:00.171Z,12
2022-10-12T04:00:00.106Z,12
2022-10-12T04:05:00.122Z,8.3
2022-10-12T04:10:00.130Z,8.3
2022-10-12T04:15:00.101Z,9.3
2022-10-12T04:20:00.112Z,9.3
2022-10-12T04:25:00.276Z,10.9
2022-10-12T04:30:00.085Z,10.9
2022-10-12T04:35:00.120Z,13.1
2022-10-12T04:40:00.153Z,13.1
2022-10-12T04:45:00.139Z,9
2022-10-12T04:50:00.100Z,9
2022-10-12T04:55:00.150Z,10.8
2022-10-12T05:00:00.097Z,10.8
2022-10-12T05:05:00.143Z,11.8
2022-10-12T05:10:00.130Z,11.8
2022-10-12T05:15:00.107Z,10.1
2022-10-12T05:20:00.107Z,10.1
2022-10-12T05:25:00.175Z,14
2022-10-12T05:30:00.088Z,14
2022-10-12T05:35:00.096Z,11.4
2022-10-12T05:40:00.124Z,11.4
2022-10-12T05:45:00.097Z,14.4
2022-10-12T05:50:00.110Z,14.4
2022-10-12T05:55:00.121Z,8.8
2022-10-12T06:00:00.097Z,8.8
2022-10-12T06:05:00.109Z,13.2
2022-10-12T06:10:00.109Z,13.2
2022-10-12T06:15:00.136Z,10.8
2022-10-12T06:20:00.111Z,10.8
2022-10-12T06:25:00.119Z,14.6
2022-10-12T06:30:00.114Z,14.6
2022-10-12T06:35:00.117Z,14.3
2022-10-12T06:40:00.287Z,14.3
2022-10-12T06:45:00.128Z,10.3
2022-10-12T06:50:00.131Z,10.3
2022-10-12T06:55:00.108Z,12.3
2022-10-12T07:00:00.110Z,12.3
2022-10-12T07:05:00.117Z,10.1
2022-10-12T07:10:00.140Z,10.1
2022-10-12T07:15:00.125Z,9
2022-10-12T07:20:00.111Z,9
2022-10-12T07:25:00.126Z,8.6
2022-10-12T07:30:00.146Z,8.6
2022-10-12T07:35:00.142Z,15.2
2022-10-12T07:40:00.137Z,15.2
2022-10-12T07:45:00.110Z,9.8
2022-10-12T07:50:00.108Z,9.8
2022-10-12T07:55:00.129Z,12.9
2022-10-12T08:00:00.109Z,12.9
2022-10-12T08:05:00.121Z,12.8
2022-10-12T08:10:00.114Z,12.8
2022-10-12T08:15:00.106Z,13
2022-10-12T08:20:00.104Z,13
2022-10-12T08:25:00.110Z,14.6
2022-10-12T08:30:00.120Z,14.6
2022-10-12T08:35:00.105Z,12.5
2022-10-12T08:40:03.202Z,12.5
2022-10-12T08:45:00.114Z,11.6
2022-10-12T08:50:00.119Z,11.6
2022-10-12T08:55:00.107Z,17.3
2022-10-12T09:00:00.108Z,17.3
2022-10-12T09:05:00.102Z,14.8
2022-10-12T09:10:00.112Z,14.8
2022-10-12T09:15:00.103Z,18.4
2022-10-12T09:20:00.131Z,18.4
2022-10-12T09:25:00.132Z,16.9
2022-10-12T09:30:00.124Z,16.9
2022-10-12T09:35:00.128Z,17.3
2022-10-12T09:40:00.114Z,17.3
2022-10-12T09:45:00.142Z,15.8
2022-10-12T09:50:00.124Z,15.8
2022-10-12T09:55:01.353Z,19.8
2022-10-12T10:00:00.110Z,19.8
2022-10-12T10:05:00.128Z,21.8
2022-10-12T10:10:00.107Z,21.8
2022-10-12T10:15:00.141Z,24.9
2022-10-12T10:20:00.124Z,24.9
2022-10-12T10:25:00.932Z,22.9
2022-10-12T10:30:10.320Z,22.9
2022-10-12T10:35:00.125Z,24.5
2022-10-12T10:40:00.138Z,24.5
2022-10-12T10:45:00.131Z,26.3
2022-10-12T10:50:00.125Z,26.3
2022-10-12T10:55:00.110Z,29.9
2022-10-12T11:00:19.705Z,29.9
2022-10-12T11:05:00.106Z,28.1
2022-10-12T11:10:00.122Z,28.1
2022-10-12T11:15:00.119Z,31.6
2022-10-12T11:20:00.116Z,31.6
2022-10-12T11:25:00.109Z,26.8
2022-10-12T11:30:08.713Z,26.8
2022-10-12T11:35:00.114Z,27.4
2022-10-12T11:40:00.112Z,27.4
2022-10-12T11:45:00.098Z,26.5
2022-10-12T11:50:00.117Z,26.5
2022-10-12T11:55:00.131Z,29.4
2022-10-12T12:00:00.121Z,29.4
2022-10-12T12:05:00.132Z,27
2022-10-12T12:10:00.114Z,27
2022-10-12T12:15:00.111Z,31.6
2022-10-12T12:20:00.108Z,31.6
2022-10-12T12:25:00.124Z,28.4
2022-10-12T12:30:00.119Z,28.4
2022-10-12T12:35:00.850Z,30.4
2022-10-12T12:40:00.123Z,30.4
2022-10-12T12:45:00.114Z,24.4
2022-10-12T12:50:00.106Z,24.4
2022-10-12T12:55:00.121Z,31.8
2022-10-12T13:00:00.121Z,31.8
2022-10-12T13:05:00.113Z,21.6
2022-10-12T13:10:00.130Z,21.6
2022-10-12T13:15:00.135Z,20.7
2022-10-12T13:20:00.112Z,20.7
2022-10-12T13:25:00.127Z,23
2022-10-12T13:30:00.107Z,23
2022-10-12T13:35:00.118Z,19.3
2022-10-12T13:40:00.144Z,19.3
2022-10-12T13:45:00.112Z,26
2022-10-12T13:50:00.234Z,26
2022-10-12T13:55:00.127Z,26.8
2022-10-12T14:00:00.202Z,26.8
2022-10-12T14:05:00.118Z,20
2022-10-12T14:10:00.247Z,20
2022-10-12T14:15:00.097Z,24.8
2022-10-12T14:20:00.113Z,24.8
2022-10-12T14:25:00.122Z,22.9
2022-10-12T14:30:00.099Z,22.9
2022-10-12T14:35:00.135Z,28.1
2022-10-12T14:40:00.128Z,28.1
2022-10-12T14:45:00.140Z,28.2
2022-10-12T14:50:00.116Z,28.2
2022-10-12T14:55:00.215Z,28.8
2022-10-12T15:00:00.097Z,28.8
2022-10-12T15:05:00.127Z,26.4
2022-10-12T15:10:00.118Z,26.4
2022-10-12T15:15:00.119Z,31.8
2022-10-12T15:20:00.101Z,31.8
2022-10-12T15:25:00.143Z,28.9
2022-10-12T15:30:00.107Z,28.9
2022-10-12T15:35:00.112Z,33.4
2022-10-12T15:40:00.139Z,33.4
2022-10-12T15:45:00.121Z,31.9
2022-10-12T15:50:00.127Z,31.9
2022-10-12T15:55:00.120Z,35.8
2022-10-12T16:00:00.100Z,35.8
2022-10-12T16:05:00.113Z,40.4
2022-10-12T16:10:00.157Z,40.4
2022-10-12T16:15:00.095Z,35.5
2022-10-12T16:20:00.118Z,35.5
2022-10-12T16:25:00.118Z,39.8
2022-10-12T16:30:00.111Z,39.8
2022-10-12T16:35:00.110Z,43.3
2022-10-12T16:40:00.106Z,43.3
2022-10-12T16:45:00.129Z,41
2022-10-12T16:50:00.112Z,41
2022-10-12T16:55:00.109Z,40.5
2022-10-12T17:00:00.106Z,40.5
2022-10-12T17:05:00.116Z,38.3
2022-10-12T17:10:00.106Z,38.3
2022-10-12T17:15:00.111Z,36.5
2022-10-12T17:20:00.103Z,36.5
2022-10-12T17:25:00.129Z,38.2
2022-10-12T17:30:00.110Z,38.2
2022-10-12T17:35:00.101Z,45.6
2022-10-12T17:40:00.135Z,45.6
2022-10-12T17:45:00.122Z,39.7
2022-10-12T17:50:00.103Z,39.7
2022-10-12T17:55:00.134Z,37.4
2022-10-12T18:00:00.093Z,37.4
2022-10-12T18:05:00.129Z,39.4
2022-10-12T18:10:00.233Z,39.4
2022-10-12T18:15:00.107Z,35.8
2022-10-12T18:20:00.101Z,35.8
2022-10-12T18:25:00.263Z,62.9
2022-10-12T18:30:00.107Z,62.9
2022-10-12T18:35:00.105Z,46.6
2022-10-12T18:40:00.126Z,46.6
2022-10-12T18:45:00.136Z,44
2022-10-12T18:50:00.088Z,44
2022-10-12T18:55:00.122Z,42.5
2022-10-12T19:00:00.094Z,42.5
2022-10-12T19:05:00.103Z,36.6
2022-10-12T19:10:00.113Z,36.6
2022-10-12T19:15:00.106Z,44.5
2022-10-12T19:20:00.100Z,44.5
2022-10-12T19:25:00.143Z,43.1
2022-10-12T19:30:00.117Z,43.1
2022-10-12T19:35:00.114Z,45.4
2022-10-12T19:40:02.866Z,45.4
2022-10-12T19:45:00.106Z,47.4
2022-10-12T19:50:00.108Z,47.4
2022-10-12T19:55:00.116Z,39.1
2022-10-12T20:00:00.103Z,39.1
2022-10-12T20:05:00.111Z,43.2
2022-10-12T20:10:00.107Z,43.2
2022-10-12T20:15:00.124Z,45
2022-10-12T20:20:00.109Z,45
2022-10-12T20:25:00.123Z,41.3
2022-10-12T20:30:00.103Z,41.3
2022-10-12T20:35:00.105Z,44.5
2022-10-12T20:40:00.115Z,44.5
2022-10-12T20:45:00.110Z,46.5
2022-10-12T20:50:00.099Z,46.5
2022-10-12T20:55:00.100Z,44.2
2022-10-12T21:00:00.099Z,44.2
2022-10-12T21:05:00.116Z,53
2022-10-12T21:10:00.101Z,53
2022-10-12T21:15:00.106Z,52
2022-10-12T21:20:00.112Z,52
2022-10-12T21:25:00.100Z,58.4
2022-10-12T21:30:00.121Z,58.4
2022-10-12T21:35:00.113Z,52.4
2022-10-12T21:40:00.136Z,52.4
2022-10-12T21:45:00.106Z,51.4
2022-10-12T21:50:00.114Z,51.4
2022-10-12T21:55:00.113Z,47.7
2022-10-12T22:00:00.100Z,47.7
2022-10-12T22:05:00.093Z,48.4
2022-10-12T22:10:00.136Z,48.4
2022-10-12T22:15:00.102Z,51.5
2022-10-12T22:20:00.101Z,51.5
2022-10-12T22:25:00.136Z,54
2022-10-12T22:30:00.102Z,54
2022-10-12T22:35:00.106Z,53.4
2022-10-12T22:40:00.110Z,53.4
2022-10-12T22:45:00.120Z,49.2
2022-10-12T22:50:00.120Z,49.2
2022-10-12T22:55:00.156Z,54.3
2022-10-12T23:00:00.093Z,54.3
2022-10-12T23:05:00.122Z,53.3
2022-10-12T23:10:00.122Z,53.3
2022-10-12T23:15:00.119Z,49.3
2022-10-12T23:20:00.118Z,49.3
2022-10-12T23:25:00.117Z,44.1
2022-10-12T23:30:00.108Z,44.1
2022-10-12T23:35:00.110Z,50.6
2022-10-12T23:40:00.126Z,50.6
2022-10-12T23:45:00.097Z,47.9
2022-10-12T23:50:00.107Z,47.9
2022-10-12T23:55:00.125Z,47.3
